August 14, 2022

Time Code Weather Temp. Visibility Ceiling Wind METAR/SPECI
07:20
V
21 °C 10 km+ - 040° 040° 4 kt METAR EGSS 140620Z AUTO 04004KT 9999 NCD 21/12 Q1009
06:50
V
20 °C 10 km+ - 050° 050° 6 kt METAR EGSS 140550Z AUTO 05006KT 030V140 9999 NCD 20/12 Q1009
06:20
V
19 °C 10 km+ - 050° 050° 6 kt METAR EGSS 140520Z AUTO 05006KT 010V080 9999 NCD 19/12 Q1009
05:50
V
17 °C 10 km+ - 060° 060° 5 kt METAR EGSS 140450Z AUTO 06005KT 9999 NCD 17/11 Q1010
05:20
V
17 °C 10 km+ - 060° 060° 6 kt METAR EGSS 140420Z AUTO 06006KT 9999 NCD 17/11 Q1010
04:50
V
17 °C 10 km+ - 070° 070° 5 kt METAR EGSS 140350Z AUTO 07005KT 9999 NCD 17/11 Q1010
04:20
V
18 °C 10 km+ - 060° 060° 7 kt METAR EGSS 140320Z AUTO 06007KT 9999 NCD 18/12 Q1010
03:50
V
17 °C 10 km+ - 060° 060° 7 kt METAR EGSS 140250Z AUTO 06007KT 9999 NCD 17/11 Q1010
03:20
V
18 °C 10 km+ - 070° 070° 6 kt METAR EGSS 140220Z AUTO 07006KT 9999 NCD 18/11 Q1011
02:50
V
18 °C 10 km+ - 070° 070° 6 kt METAR EGSS 140150Z AUTO 07006KT 9999 NCD 18/11 Q1011
02:20
V
18 °C 10 km+ - 070° 070° 7 kt METAR EGSS 140120Z AUTO 07007KT 9999 NCD 18/11 Q1011
01:50
V
19 °C 10 km+ - 070° 070° 7 kt METAR EGSS 140050Z AUTO 07007KT 9999 NCD 19/11 Q1011
01:20
V
20 °C 10 km+ - 080° 080° 7 kt METAR EGSS 140020Z AUTO 08007KT 9999 NCD 20/11 Q1012
00:50
V
20 °C 10 km+ - 070° 070° 7 kt METAR EGSS 132350Z AUTO 07007KT 9999 NCD 20/10 Q1012
00:20
V
20 °C 10 km+ - 070° 070° 7 kt METAR EGSS 132320Z AUTO 07007KT 9999 NCD 20/09 Q1012

August 13, 2022

Time Code Weather Temp. Visibility Ceiling Wind METAR/SPECI
23:50
V
20 °C 10 km+ - 080° 080° 7 kt METAR EGSS 132250Z AUTO 08007KT 9999 NCD 20/09 Q1012
23:20
V
21 °C 10 km+ - 080° 080° 7 kt METAR EGSS 132220Z AUTO 08007KT 9999 NCD 21/09 Q1013
22:50
V
22 °C 10 km+ - 100° 100° 7 kt METAR EGSS 132150Z 10007KT CAVOK 22/09 Q1013
22:20
V
23 °C 10 km+ - 100° 100° 7 kt METAR EGSS 132120Z AUTO 10007KT 080V140 9999 NCD 23/09 Q1013
21:50
V
24 °C 10 km+ - 110° 110° 8 kt METAR EGSS 132050Z AUTO 11008KT 9999 NCD 24/09 Q1013
21:20
V
25 °C 10 km+ - 110° 110° 9 kt METAR EGSS 132020Z AUTO 11009KT 100V160 9999 NCD 25/09 Q1013
20:50
V
25 °C 10 km+ - 110° 110° 9 kt METAR EGSS 131950Z AUTO 11009KT 100V160 9999 NCD 25/08 Q1013
20:20
V
26 °C 10 km+ - 110° 110° 8 kt METAR EGSS 131920Z AUTO 11008KT 070V150 9999 NCD 26/08 Q1013
19:50
V
28 °C 10 km+ - 120° 120° 10 kt METAR EGSS 131850Z AUTO 12010KT 090V160 9999 NCD 28/08 Q1013
19:20
V
28 °C 10 km+ - 120° 120° 11 kt METAR EGSS 131820Z AUTO 12011KT 9999 NCD 28/08 Q1013
18:50
V
30 °C 10 km+ - 120° 120° 10 kt METAR EGSS 131750Z AUTO 12010KT 090V160 9999 NCD 30/08 Q1013
18:20
V
30 °C 10 km+ - 120° 120° 11 kt METAR EGSS 131720Z AUTO 12011KT 090V150 9999 NCD 30/08 Q1013
17:50
V
31 °C 10 km+ - 110° 110° 11 kt METAR EGSS 131650Z AUTO 11011KT 9999 NCD 31/08 Q1013
17:20
V
31 °C 10 km+ - 110° 110° 11 kt METAR EGSS 131620Z AUTO 11011KT 090V150 9999 NCD 31/08 Q1013
16:50
V
32 °C 10 km+ - 110° 110° 12 kt METAR EGSS 131550Z AUTO 11012KT 090V150 9999 NCD 32/09 Q1013
16:20
V
32 °C 10 km+ - 120° 120° 11 kt METAR EGSS 131520Z AUTO 12011KT 090V160 9999 NCD 32/09 Q1013
15:50
V
32 °C 10 km+ - 120° 120° 11 kt METAR EGSS 131450Z AUTO 12011KT 080V150 9999 NCD 32/10 Q1013
15:20
V
32 °C 10 km+ - 140° 140° 10 kt METAR EGSS 131420Z AUTO 14010KT 100V190 9999 NCD 32/10 Q1014
14:50
V
32 °C 10 km+ - 150° 150° 9 kt METAR EGSS 131350Z AUTO 15009KT 090V200 9999 NCD 32/10 Q1014
14:20
V
32 °C 10 km+ - 120° 120° 10 kt METAR EGSS 131320Z AUTO 12010KT 080V160 9999 NCD 32/09 Q1014
13:50
V
32 °C 10 km+ - 120° 120° 11 kt METAR EGSS 131250Z AUTO 12011KT 090V170 9999 NCD 32/10 Q1014
13:20
V
32 °C 10 km+ - 120° 120° 13 kt METAR EGSS 131220Z AUTO 12013KT 9999 NCD 32/10 Q1015
12:50
V
32 °C 10 km+ - 130° 130° 12 kt METAR EGSS 131150Z AUTO 13012KT 9999 NCD 32/08 Q1015
12:20
V
32 °C 10 km+ - 120° 120° 11 kt METAR EGSS 131120Z AUTO 12011KT 080V140 9999 NCD 32/10 Q1015
11:50
V
31 °C 10 km+ - 100° 100° 11 kt METAR EGSS 131050Z AUTO 10011KT 060V130 9999 NCD 31/11 Q1015
11:20
V
31 °C 10 km+ - 070° 070° 11 kt METAR EGSS 131020Z AUTO 07011KT 040V110 9999 NCD 31/11 Q1015
10:50
V
29 °C 10 km+ - 060° 060° 8 kt METAR EGSS 130950Z AUTO 06008KT 040V100 9999 NCD 29/12 Q1016
10:20
V
28 °C 10 km+ - 070° 070° 7 kt METAR EGSS 130920Z AUTO 07007KT 030V100 9999 NCD 28/13 Q1016
09:50
V
26 °C 10 km+ - 040° 040° 7 kt METAR EGSS 130850Z 04007KT CAVOK 26/14 Q1016
09:20
V
24 °C 10 km+ - 030° 030° 6 kt METAR EGSS 130820Z AUTO 03006KT 9999 NCD 24/15 Q1016
08:50
V
22 °C 10 km+ - 010° 010° 5 kt METAR EGSS 130750Z AUTO 01005KT 340V040 9999 NCD 22/16 Q1016
08:20
V
20 °C 10 km+ - 020° 020° 6 kt METAR EGSS 130720Z AUTO 02006KT 9999 NCD 20/16 Q1016
07:50
V
18 °C 10 km+ - 360° 360° 5 kt METAR EGSS 130650Z AUTO 36005KT 9999 NCD 18/15 Q1016
07:20
V
17 °C 10 km+ - 350° 350° 5 kt METAR EGSS 130620Z AUTO 35005KT 9999 NCD 17/15 Q1016
06:50
V
16 °C 10 km+ - 350° 350° 4 kt METAR EGSS 130550Z AUTO 35004KT 9999 NCD 16/14 Q1016
06:20
V
15 °C 10 km+ - 340° 340° 4 kt METAR EGSS 130520Z AUTO 34004KT 9999 NCD 15/14 Q1016
05:50
V
16 °C 10 km+ - 010° 010° 4 kt METAR EGSS 130450Z AUTO 01004KT 9999 NCD 16/14 Q1016
05:20
V
17 °C 10 km+ - 020° 020° 5 kt METAR EGSS 130420Z AUTO 02005KT 9999 NCD 17/15 Q1016
04:50
V
17 °C 10 km+ - 360° 360° 4 kt METAR EGSS 130350Z AUTO 36004KT 9999 NCD 17/14 Q1016
04:20
V
17 °C 10 km+ - 020° 020° 3 kt METAR EGSS 130320Z AUTO 02003KT 340V040 9999 NCD 17/14 Q1016
03:50
V
17 °C 10 km+ - 350° 350° 3 kt METAR EGSS 130250Z AUTO 35003KT 9999 NCD 17/14 Q1016
03:20
V
17 °C 10 km+ - 020° 020° 4 kt METAR EGSS 130220Z AUTO 02004KT 9999 NCD 17/14 Q1016
02:50
V
17 °C 10 km+ - 020° 020° 4 kt METAR EGSS 130150Z AUTO 02004KT 9999 NCD 17/15 Q1016
02:20
V
17 °C 10 km+ - 050° 050° 7 kt METAR EGSS 130120Z AUTO 05007KT 9999 NCD 17/15 Q1017
01:50
V
17 °C 10 km+ - 050° 050° 7 kt METAR EGSS 130050Z AUTO 05007KT 9999 NCD 17/15 Q1017
01:20
V
18 °C 10 km+ - 050° 050° 7 kt METAR EGSS 130020Z AUTO 05007KT 9999 NCD 18/15 Q1017
00:50
V
18 °C 10 km+ - 060° 060° 8 kt METAR EGSS 122350Z AUTO 06008KT 9999 NCD 18/15 Q1017
00:20
V
19 °C 10 km+ - 060° 060° 8 kt METAR EGSS 122320Z AUTO 06008KT 9999 NCD 19/14 Q1017

August 12, 2022

Time Code Weather Temp. Visibility Ceiling Wind METAR/SPECI
23:50
V
19 °C 10 km+ - 050° 050° 8 kt METAR EGSS 122250Z AUTO 05008KT 9999 NCD 19/13 Q1018
23:20
V
20 °C 10 km+ - 060° 060° 9 kt METAR EGSS 122220Z AUTO 06009KT 9999 NCD 20/12 Q1018
22:50
V
21 °C 10 km+ - 060° 060° 8 kt METAR EGSS 122150Z AUTO 06008KT 9999 NCD 21/11 Q1018
22:20
V
22 °C 10 km+ - 060° 060° 9 - 19 kt METAR EGSS 122120Z AUTO 06009G19KT 030V100 9999 NCD 22/11 Q1018
21:50
V
22 °C 10 km+ - 060° 060° 8 - 18 kt METAR EGSS 122050Z AUTO 06008G18KT 010V100 9999 NCD 22/10 Q1018
21:20
V
22 °C 10 km+ - 060° 060° 7 kt METAR EGSS 122020Z AUTO 06007KT 9999 NCD 22/10 Q1018
20:50
V
24 °C 10 km+ - 070° 070° 8 kt METAR EGSS 121950Z AUTO 07008KT 030V090 9999 NCD 24/10 Q1017
20:20
V
25 °C 10 km+ - 070° 070° 7 kt METAR EGSS 121920Z AUTO 07007KT 9999 NCD 25/10 Q1017
19:50
V
27 °C 10 km+ - 070° 070° 8 kt METAR EGSS 121850Z AUTO 07008KT 040V110 9999 NCD 27/10 Q1017
19:20
V
28 °C 10 km+ - 080° 080° 10 kt METAR EGSS 121820Z AUTO 08010KT 010V110 9999 NCD 28/09 Q1017
18:50
V
29 °C 10 km+ - 090° 090° 10 kt METAR EGSS 121750Z AUTO 09010KT 030V120 9999 NCD 29/09 Q1017
18:20
V
30 °C 10 km+ - 100° 100° 10 - 21 kt METAR EGSS 121720Z AUTO 10010G21KT 9999 NCD 30/10 Q1017
17:50
V
30 °C 10 km+ - 090° 090° 10 kt METAR EGSS 121650Z AUTO 09010KT 040V130 9999 NCD 30/10 Q1017
17:20
V
31 °C 10 km+ - 110° 110° 10 kt METAR EGSS 121620Z AUTO 11010KT 9999 NCD 31/09 Q1017
16:50
V
31 °C 10 km+ - 100° 100° 8 kt METAR EGSS 121550Z AUTO 10008KT 060V130 9999 NCD 31/09 Q1017
16:20
V
31 °C 10 km+ - Var Var 9 kt METAR EGSS 121520Z AUTO VRB09KT 9999 NCD 31/09 Q1017
15:50
V
32 °C 10 km+ - 100° 100° 9 kt METAR EGSS 121450Z AUTO 10009KT 050V130 9999 NCD 32/09 Q1017
15:20
V
32 °C 10 km+ - 120° 120° 9 kt METAR EGSS 121420Z AUTO 12009KT 060V150 9999 NCD 32/09 Q1018
14:50
V
32 °C 10 km+ - 110° 110° 8 kt METAR EGSS 121350Z AUTO 11008KT 020V190 9999 NCD 32/09 Q1018
14:20
V
32 °C 10 km+ - 120° 120° 9 kt METAR EGSS 121320Z AUTO 12009KT 070V160 9999 NCD 32/09 Q1018
13:50
V
32 °C 10 km+ - 080° 080° 11 kt METAR EGSS 121250Z AUTO 08011KT 9999 NCD 32/09 Q1018
13:20
V
32 °C 10 km+ - 100° 100° 7 kt METAR EGSS 121220Z AUTO 10007KT 050V140 9999 NCD 32/10 Q1018
12:50
V
31 °C 10 km+ - 120° 120° 7 kt METAR EGSS 121150Z AUTO 12007KT 050V150 9999 NCD 31/10 Q1019
12:20
V
31 °C 10 km+ - 090° 090° 9 kt METAR EGSS 121120Z AUTO 09009KT 050V130 9999 NCD 31/11 Q1019
11:50
V
31 °C 10 km+ - 090° 090° 9 kt METAR EGSS 121050Z AUTO 09009KT 050V130 9999 NCD 31/11 Q1019
11:20
V
30 °C 10 km+ - 090° 090° 8 kt METAR EGSS 121020Z AUTO 09008KT 030V120 9999 NCD 30/12 Q1019
10:50
V
29 °C 10 km+ - 060° 060° 7 kt METAR EGSS 120950Z AUTO 06007KT 9999 NCD 29/13 Q1019
10:20
V
28 °C 10 km+ - 070° 070° 7 kt METAR EGSS 120920Z AUTO 07007KT 040V100 9999 NCD 28/14 Q1020
09:50
V
27 °C 10 km+ - 060° 060° 8 kt METAR EGSS 120850Z AUTO 06008KT 9999 NCD 27/15 Q1020
09:20
V
25 °C 10 km+ - 060° 060° 6 kt METAR EGSS 120820Z AUTO 06006KT 020V090 9999 NCD 25/15 Q1020
08:50
V
24 °C 10 km+ - 040° 040° 5 kt METAR EGSS 120750Z AUTO 04005KT 020V080 9999 NCD 24/16 Q1020
08:20
V
22 °C 10 km+ - 030° 030° 6 kt METAR EGSS 120720Z AUTO 03006KT 9999 NCD 22/16 Q1020
07:50
V
20 °C 10 km+ - 020° 020° 3 kt METAR EGSS 120650Z AUTO 02003KT 340V050 9999 NCD 20/16 Q1020
07:20
V
19 °C 10 km+ - 040° 040° 5 kt METAR EGSS 120620Z AUTO 04005KT 9999 NCD 19/15 Q1020
06:50
V
18 °C 10 km+ - 050° 050° 7 kt METAR EGSS 120550Z AUTO 05007KT 9999 NCD 18/15 Q1020
06:20
V
16 °C 10 km+ - 020° 020° 4 kt METAR EGSS 120520Z AUTO 02004KT 9999 NCD 16/14 Q1020
Older data

We and third parties follow your internet behavior on our website with cookies. If you continue, we assume you agree with our cookie policy. Learn more